sensor_id;sensor_type;location;lat;lon;timestamp;P1;durP1;ratioP1;P2;durP2;ratioP2
68315;SDS011;55508;54.368;18.406;2023-12-22T00:02:24;5.70;;;1.38;;
68315;SDS011;55508;54.368;18.406;2023-12-22T00:04:52;2.45;;;1.20;;
68315;SDS011;55508;54.368;18.406;2023-12-22T00:07:19;4.13;;;1.60;;
68315;SDS011;55508;54.368;18.406;2023-12-22T00:09:47;7.30;;;2.17;;
68315;SDS011;55508;54.368;18.406;2023-12-22T00:12:14;3.33;;;1.25;;
68315;SDS011;55508;54.368;18.406;2023-12-22T00:14:41;5.55;;;1.50;;
68315;SDS011;55508;54.368;18.406;2023-12-22T00:17:08;4.40;;;1.40;;
68315;SDS011;55508;54.368;18.406;2023-12-22T00:19:36;7.00;;;1.85;;
68315;SDS011;55508;54.368;18.406;2023-12-22T00:22:03;3.53;;;1.30;;
68315;SDS011;55508;54.368;18.406;2023-12-22T00:24:30;3.17;;;1.30;;
68315;SDS011;55508;54.368;18.406;2023-12-22T00:26:57;2.22;;;0.80;;
68315;SDS011;55508;54.368;18.406;2023-12-22T00:29:25;2.60;;;0.70;;
68315;SDS011;55508;54.368;18.406;2023-12-22T00:31:52;1.63;;;0.70;;
68315;SDS011;55508;54.368;18.406;2023-12-22T00:34:19;2.30;;;0.85;;
68315;SDS011;55508;54.368;18.406;2023-12-22T00:36:48;2.50;;;1.10;;
68315;SDS011;55508;54.368;18.406;2023-12-22T00:39:15;1.17;;;0.55;;
68315;SDS011;55508;54.368;18.406;2023-12-22T00:41:42;1.73;;;0.80;;
68315;SDS011;55508;54.368;18.406;2023-12-22T00:44:09;5.47;;;0.98;;
68315;SDS011;55508;54.368;18.406;2023-12-22T00:46:36;1.98;;;1.00;;
68315;SDS011;55508;54.368;18.406;2023-12-22T00:49:04;1.30;;;0.50;;
68315;SDS011;55508;54.368;18.406;2023-12-22T00:51:31;1.48;;;0.82;;
68315;SDS011;55508;54.368;18.406;2023-12-22T00:53:58;2.00;;;0.60;;
68315;SDS011;55508;54.368;18.406;2023-12-22T00:56:25;2.40;;;0.57;;
68315;SDS011;55508;54.368;18.406;2023-12-22T00:58:52;0.73;;;0.60;;
68315;SDS011;55508;54.368;18.406;2023-12-22T01:01:30;1.05;;;0.50;;
68315;SDS011;55508;54.368;18.406;2023-12-22T01:03:58;0.70;;;0.30;;
68315;SDS011;55508;54.368;18.406;2023-12-22T01:06:25;1.42;;;0.40;;
68315;SDS011;55508;54.368;18.406;2023-12-22T01:08:55;1.35;;;0.60;;
68315;SDS011;55508;54.368;18.406;2023-12-22T01:11:22;2.63;;;0.55;;
68315;SDS011;55508;54.368;18.406;2023-12-22T01:13:49;1.40;;;0.52;;
68315;SDS011;55508;54.368;18.406;2023-12-22T01:16:16;1.45;;;0.65;;
68315;SDS011;55508;54.368;18.406;2023-12-22T01:18:46;2.33;;;0.80;;
68315;SDS011;55508;54.368;18.406;2023-12-22T01:21:13;1.70;;;0.52;;
68315;SDS011;55508;54.368;18.406;2023-12-22T01:23:40;0.50;;;0.50;;
68315;SDS011;55508;54.368;18.406;2023-12-22T01:26:07;1.15;;;0.40;;
68315;SDS011;55508;54.368;18.406;2023-12-22T01:28:34;0.30;;;0.30;;
68315;SDS011;55508;54.368;18.406;2023-12-22T01:31:02;0.55;;;0.20;;
68315;SDS011;55508;54.368;18.406;2023-12-22T01:33:29;0.20;;;0.20;;
68315;SDS011;55508;54.368;18.406;2023-12-22T01:35:56;0.40;;;0.30;;
68315;SDS011;55508;54.368;18.406;2023-12-22T01:38:23;0.30;;;0.30;;
68315;SDS011;55508;54.368;18.406;2023-12-22T01:40:50;0.40;;;0.30;;
68315;SDS011;55508;54.368;18.406;2023-12-22T01:43:17;0.73;;;0.35;;
68315;SDS011;55508;54.368;18.406;2023-12-22T01:45:49;0.30;;;0.30;;
68315;SDS011;55508;54.368;18.406;2023-12-22T01:48:17;0.55;;;0.30;;
68315;SDS011;55508;54.368;18.406;2023-12-22T01:50:44;0.57;;;0.50;;
68315;SDS011;55508;54.368;18.406;2023-12-22T01:53:11;0.50;;;0.47;;
68315;SDS011;55508;54.368;18.406;2023-12-22T01:55:38;0.43;;;0.40;;
68315;SDS011;55508;54.368;18.406;2023-12-22T01:58:05;0.45;;;0.40;;
68315;SDS011;55508;54.368;18.406;2023-12-22T02:00:32;0.63;;;0.47;;
68315;SDS011;55508;54.368;18.406;2023-12-22T02:03:00;1.08;;;0.50;;
68315;SDS011;55508;54.368;18.406;2023-12-22T02:05:27;2.72;;;0.60;;
68315;SDS011;55508;54.368;18.406;2023-12-22T02:07:56;1.42;;;0.70;;
68315;SDS011;55508;54.368;18.406;2023-12-22T02:10:23;0.30;;;0.30;;
68315;SDS011;55508;54.368;18.406;2023-12-22T02:12:50;0.60;;;0.60;;
68315;SDS011;55508;54.368;18.406;2023-12-22T02:15:17;0.95;;;0.50;;
68315;SDS011;55508;54.368;18.406;2023-12-22T02:17:49;0.47;;;0.40;;
68315;SDS011;55508;54.368;18.406;2023-12-22T02:20:22;0.93;;;0.70;;
68315;SDS011;55508;54.368;18.406;2023-12-22T02:22:52;1.90;;;0.70;;
68315;SDS011;55508;54.368;18.406;2023-12-22T02:25:20;1.00;;;0.82;;
68315;SDS011;55508;54.368;18.406;2023-12-22T02:27:53;0.85;;;0.70;;
68315;SDS011;55508;54.368;18.406;2023-12-22T02:30:26;1.42;;;0.80;;
68315;SDS011;55508;54.368;18.406;2023-12-22T02:33:03;0.77;;;0.50;;
68315;SDS011;55508;54.368;18.406;2023-12-22T02:35:32;2.28;;;0.95;;
68315;SDS011;55508;54.368;18.406;2023-12-22T02:38:01;1.63;;;0.90;;
68315;SDS011;55508;54.368;18.406;2023-12-22T02:40:29;1.35;;;1.00;;
68315;SDS011;55508;54.368;18.406;2023-12-22T02:42:56;2.50;;;0.70;;
68315;SDS011;55508;54.368;18.406;2023-12-22T02:45:24;2.60;;;1.00;;
68315;SDS011;55508;54.368;18.406;2023-12-22T02:47:51;0.88;;;0.63;;
68315;SDS011;55508;54.368;18.406;2023-12-22T02:50:18;1.63;;;0.95;;
68315;SDS011;55508;54.368;18.406;2023-12-22T02:52:45;1.95;;;0.98;;
68315;SDS011;55508;54.368;18.406;2023-12-22T02:55:12;2.22;;;1.13;;
68315;SDS011;55508;54.368;18.406;2023-12-22T02:57:39;5.40;;;1.40;;
68315;SDS011;55508;54.368;18.406;2023-12-22T03:00:06;4.85;;;1.45;;
68315;SDS011;55508;54.368;18.406;2023-12-22T03:02:34;2.72;;;1.30;;
68315;SDS011;55508;54.368;18.406;2023-12-22T03:05:01;1.10;;;0.90;;
68315;SDS011;55508;54.368;18.406;2023-12-22T03:07:28;3.25;;;1.90;;
68315;SDS011;55508;54.368;18.406;2023-12-22T03:09:55;3.95;;;1.60;;
68315;SDS011;55508;54.368;18.406;2023-12-22T03:12:22;4.68;;;1.50;;
68315;SDS011;55508;54.368;18.406;2023-12-22T03:14:49;1.90;;;1.60;;
68315;SDS011;55508;54.368;18.406;2023-12-22T03:17:16;2.15;;;1.48;;
68315;SDS011;55508;54.368;18.406;2023-12-22T03:19:43;3.00;;;1.30;;
68315;SDS011;55508;54.368;18.406;2023-12-22T03:22:10;1.00;;;0.90;;
68315;SDS011;55508;54.368;18.406;2023-12-22T03:24:37;0.82;;;0.57;;
68315;SDS011;55508;54.368;18.406;2023-12-22T03:27:05;1.02;;;0.55;;
68315;SDS011;55508;54.368;18.406;2023-12-22T03:29:32;0.95;;;0.50;;
68315;SDS011;55508;54.368;18.406;2023-12-22T03:31:59;2.15;;;0.60;;
68315;SDS011;55508;54.368;18.406;2023-12-22T03:34:26;0.55;;;0.40;;
68315;SDS011;55508;54.368;18.406;2023-12-22T03:36:53;0.40;;;0.40;;
68315;SDS011;55508;54.368;18.406;2023-12-22T03:39:20;0.40;;;0.40;;
68315;SDS011;55508;54.368;18.406;2023-12-22T03:41:47;0.63;;;0.40;;
68315;SDS011;55508;54.368;18.406;2023-12-22T03:44:14;0.20;;;0.20;;
68315;SDS011;55508;54.368;18.406;2023-12-22T03:46:41;0.50;;;0.43;;
68315;SDS011;55508;54.368;18.406;2023-12-22T03:49:08;0.50;;;0.38;;
68315;SDS011;55508;54.368;18.406;2023-12-22T03:51:35;0.80;;;0.70;;
68315;SDS011;55508;54.368;18.406;2023-12-22T03:54:04;1.35;;;0.47;;
68315;SDS011;55508;54.368;18.406;2023-12-22T03:56:31;0.82;;;0.47;;
68315;SDS011;55508;54.368;18.406;2023-12-22T03:58:58;0.50;;;0.47;;
68315;SDS011;55508;54.368;18.406;2023-12-22T04:01:25;0.50;;;0.50;;
68315;SDS011;55508;54.368;18.406;2023-12-22T04:03:52;1.27;;;0.50;;
68315;SDS011;55508;54.368;18.406;2023-12-22T04:06:19;0.80;;;0.50;;
68315;SDS011;55508;54.368;18.406;2023-12-22T04:08:46;1.10;;;0.55;;
68315;SDS011;55508;54.368;18.406;2023-12-22T04:11:13;3.00;;;0.60;;
68315;SDS011;55508;54.368;18.406;2023-12-22T04:13:40;0.88;;;0.43;;
68315;SDS011;55508;54.368;18.406;2023-12-22T04:16:07;2.40;;;0.60;;
68315;SDS011;55508;54.368;18.406;2023-12-22T04:18:34;1.15;;;0.50;;
68315;SDS011;55508;54.368;18.406;2023-12-22T04:21:01;2.53;;;0.98;;
68315;SDS011;55508;54.368;18.406;2023-12-22T04:23:29;0.93;;;0.60;;
68315;SDS011;55508;54.368;18.406;2023-12-22T04:25:56;0.60;;;0.45;;
68315;SDS011;55508;54.368;18.406;2023-12-22T04:28:23;0.40;;;0.30;;
68315;SDS011;55508;54.368;18.406;2023-12-22T04:30:50;0.82;;;0.50;;
68315;SDS011;55508;54.368;18.406;2023-12-22T04:33:17;1.00;;;0.55;;
68315;SDS011;55508;54.368;18.406;2023-12-22T04:35:44;0.80;;;0.80;;
68315;SDS011;55508;54.368;18.406;2023-12-22T04:38:11;1.40;;;0.80;;
68315;SDS011;55508;54.368;18.406;2023-12-22T04:40:38;0.80;;;0.52;;
68315;SDS011;55508;54.368;18.406;2023-12-22T04:43:05;0.40;;;0.20;;
68315;SDS011;55508;54.368;18.406;2023-12-22T04:45:32;0.32;;;0.20;;
68315;SDS011;55508;54.368;18.406;2023-12-22T04:48:00;0.10;;;0.10;;
68315;SDS011;55508;54.368;18.406;2023-12-22T04:50:27;0.57;;;0.32;;
68315;SDS011;55508;54.368;18.406;2023-12-22T04:52:54;0.60;;;0.30;;
68315;SDS011;55508;54.368;18.406;2023-12-22T04:55:21;0.40;;;0.30;;
68315;SDS011;55508;54.368;18.406;2023-12-22T04:57:48;0.60;;;0.50;;
68315;SDS011;55508;54.368;18.406;2023-12-22T05:00:16;1.17;;;0.50;;
68315;SDS011;55508;54.368;18.406;2023-12-22T05:02:43;1.40;;;0.60;;
68315;SDS011;55508;54.368;18.406;2023-12-22T05:05:11;2.80;;;0.40;;
68315;SDS011;55508;54.368;18.406;2023-12-22T05:07:38;1.08;;;0.47;;
68315;SDS011;55508;54.368;18.406;2023-12-22T05:10:07;2.60;;;1.00;;
68315;SDS011;55508;54.368;18.406;2023-12-22T05:12:34;1.00;;;0.63;;
68315;SDS011;55508;54.368;18.406;2023-12-22T05:15:02;5.35;;;1.60;;
68315;SDS011;55508;54.368;18.406;2023-12-22T05:17:29;5.78;;;1.52;;
68315;SDS011;55508;54.368;18.406;2023-12-22T05:19:56;12.65;;;2.38;;
68315;SDS011;55508;54.368;18.406;2023-12-22T05:22:23;6.88;;;2.22;;
68315;SDS011;55508;54.368;18.406;2023-12-22T05:24:50;7.70;;;2.40;;
68315;SDS011;55508;54.368;18.406;2023-12-22T05:27:18;12.43;;;2.80;;
68315;SDS011;55508;54.368;18.406;2023-12-22T05:29:45;11.05;;;3.00;;
68315;SDS011;55508;54.368;18.406;2023-12-22T05:32:12;6.75;;;1.42;;
68315;SDS011;55508;54.368;18.406;2023-12-22T05:34:39;5.50;;;1.33;;
68315;SDS011;55508;54.368;18.406;2023-12-22T05:37:06;5.60;;;2.38;;
68315;SDS011;55508;54.368;18.406;2023-12-22T05:39:33;10.65;;;1.73;;
68315;SDS011;55508;54.368;18.406;2023-12-22T05:42:00;10.13;;;2.38;;
68315;SDS011;55508;54.368;18.406;2023-12-22T05:44:27;13.05;;;1.95;;
68315;SDS011;55508;54.368;18.406;2023-12-22T05:46:56;11.50;;;2.13;;
68315;SDS011;55508;54.368;18.406;2023-12-22T05:49:24;9.38;;;2.28;;
68315;SDS011;55508;54.368;18.406;2023-12-22T05:51:52;7.25;;;2.53;;
68315;SDS011;55508;54.368;18.406;2023-12-22T05:54:19;11.32;;;2.33;;
68315;SDS011;55508;54.368;18.406;2023-12-22T05:56:47;11.85;;;3.45;;
68315;SDS011;55508;54.368;18.406;2023-12-22T05:59:15;17.80;;;3.65;;
68315;SDS011;55508;54.368;18.406;2023-12-22T06:01:42;12.13;;;3.30;;
68315;SDS011;55508;54.368;18.406;2023-12-22T06:04:09;12.52;;;3.30;;
68315;SDS011;55508;54.368;18.406;2023-12-22T06:06:36;11.48;;;3.22;;
68315;SDS011;55508;54.368;18.406;2023-12-22T06:09:05;13.55;;;1.40;;
68315;SDS011;55508;54.368;18.406;2023-12-22T06:11:32;8.90;;;1.63;;
68315;SDS011;55508;54.368;18.406;2023-12-22T06:13:59;10.40;;;1.83;;
68315;SDS011;55508;54.368;18.406;2023-12-22T06:16:26;6.88;;;1.60;;
68315;SDS011;55508;54.368;18.406;2023-12-22T06:18:53;2.80;;;0.90;;
68315;SDS011;55508;54.368;18.406;2023-12-22T06:21:20;5.22;;;1.63;;
68315;SDS011;55508;54.368;18.406;2023-12-22T06:23:47;5.90;;;2.03;;
68315;SDS011;55508;54.368;18.406;2023-12-22T06:26:14;8.80;;;1.67;;
68315;SDS011;55508;54.368;18.406;2023-12-22T06:28:41;6.47;;;1.55;;
68315;SDS011;55508;54.368;18.406;2023-12-22T06:31:10;3.67;;;2.00;;
68315;SDS011;55508;54.368;18.406;2023-12-22T06:33:47;7.40;;;1.13;;
68315;SDS011;55508;54.368;18.406;2023-12-22T06:36:19;4.60;;;1.23;;
68315;SDS011;55508;54.368;18.406;2023-12-22T06:41:23;4.88;;;1.13;;
68315;SDS011;55508;54.368;18.406;2023-12-22T06:43:54;4.28;;;1.00;;
68315;SDS011;55508;54.368;18.406;2023-12-22T06:46:22;5.75;;;1.67;;
68315;SDS011;55508;54.368;18.406;2023-12-22T06:48:53;2.47;;;0.88;;
68315;SDS011;55508;54.368;18.406;2023-12-22T06:51:23;7.13;;;1.70;;
68315;SDS011;55508;54.368;18.406;2023-12-22T06:53:54;5.72;;;2.08;;
68315;SDS011;55508;54.368;18.406;2023-12-22T06:56:26;7.18;;;1.45;;
68315;SDS011;55508;54.368;18.406;2023-12-22T06:58:54;2.80;;;1.25;;
68315;SDS011;55508;54.368;18.406;2023-12-22T07:01:30;2.33;;;1.77;;
68315;SDS011;55508;54.368;18.406;2023-12-22T07:03:58;3.90;;;1.98;;
68315;SDS011;55508;54.368;18.406;2023-12-22T07:06:30;3.47;;;1.08;;
68315;SDS011;55508;54.368;18.406;2023-12-22T07:12:00;4.20;;;1.40;;
68315;SDS011;55508;54.368;18.406;2023-12-22T07:14:27;3.40;;;1.10;;
68315;SDS011;55508;54.368;18.406;2023-12-22T07:16:54;3.78;;;1.63;;
68315;SDS011;55508;54.368;18.406;2023-12-22T07:19:24;4.43;;;1.38;;
68315;SDS011;55508;54.368;18.406;2023-12-22T07:21:51;8.63;;;1.98;;
68315;SDS011;55508;54.368;18.406;2023-12-22T07:24:18;4.53;;;2.00;;
68315;SDS011;55508;54.368;18.406;2023-12-22T07:26:46;6.28;;;1.88;;
68315;SDS011;55508;54.368;18.406;2023-12-22T07:29:13;9.30;;;1.80;;
68315;SDS011;55508;54.368;18.406;2023-12-22T07:31:40;14.50;;;2.53;;
68315;SDS011;55508;54.368;18.406;2023-12-22T07:34:07;9.20;;;2.85;;
68315;SDS011;55508;54.368;18.406;2023-12-22T07:36:35;9.43;;;2.13;;
68315;SDS011;55508;54.368;18.406;2023-12-22T07:39:13;11.32;;;2.47;;
68315;SDS011;55508;54.368;18.406;2023-12-22T07:41:43;8.45;;;2.42;;
68315;SDS011;55508;54.368;18.406;2023-12-22T07:44:10;8.38;;;2.22;;
68315;SDS011;55508;54.368;18.406;2023-12-22T07:46:37;7.38;;;2.80;;
68315;SDS011;55508;54.368;18.406;2023-12-22T07:49:04;10.27;;;2.72;;
68315;SDS011;55508;54.368;18.406;2023-12-22T07:51:31;10.23;;;2.80;;
68315;SDS011;55508;54.368;18.406;2023-12-22T07:53:59;4.80;;;1.38;;
68315;SDS011;55508;54.368;18.406;2023-12-22T07:56:26;5.13;;;2.28;;
68315;SDS011;55508;54.368;18.406;2023-12-22T07:58:53;3.30;;;1.77;;
68315;SDS011;55508;54.368;18.406;2023-12-22T08:01:34;12.80;;;2.95;;
68315;SDS011;55508;54.368;18.406;2023-12-22T08:04:01;12.82;;;3.88;;
68315;SDS011;55508;54.368;18.406;2023-12-22T08:06:29;7.13;;;3.35;;
68315;SDS011;55508;54.368;18.406;2023-12-22T08:08:56;12.30;;;3.95;;
68315;SDS011;55508;54.368;18.406;2023-12-22T08:11:23;9.13;;;4.10;;
68315;SDS011;55508;54.368;18.406;2023-12-22T08:13:51;10.73;;;4.57;;
68315;SDS011;55508;54.368;18.406;2023-12-22T08:16:18;8.35;;;3.25;;
68315;SDS011;55508;54.368;18.406;2023-12-22T08:18:46;6.32;;;2.22;;
68315;SDS011;55508;54.368;18.406;2023-12-22T08:21:13;4.85;;;1.90;;
68315;SDS011;55508;54.368;18.406;2023-12-22T08:23:54;4.43;;;1.30;;
68315;SDS011;55508;54.368;18.406;2023-12-22T08:26:22;10.05;;;3.00;;
68315;SDS011;55508;54.368;18.406;2023-12-22T08:28:49;9.40;;;2.35;;
68315;SDS011;55508;54.368;18.406;2023-12-22T08:31:16;7.03;;;2.30;;
68315;SDS011;55508;54.368;18.406;2023-12-22T08:33:43;9.88;;;2.78;;
68315;SDS011;55508;54.368;18.406;2023-12-22T08:36:11;6.68;;;2.67;;
68315;SDS011;55508;54.368;18.406;2023-12-22T08:38:39;13.63;;;4.07;;
68315;SDS011;55508;54.368;18.406;2023-12-22T08:41:08;8.95;;;3.88;;
68315;SDS011;55508;54.368;18.406;2023-12-22T08:43:35;9.70;;;3.58;;
68315;SDS011;55508;54.368;18.406;2023-12-22T08:46:02;7.18;;;2.63;;
68315;SDS011;55508;54.368;18.406;2023-12-22T08:48:29;13.02;;;2.92;;
68315;SDS011;55508;54.368;18.406;2023-12-22T08:50:57;14.70;;;4.45;;
68315;SDS011;55508;54.368;18.406;2023-12-22T08:53:24;10.93;;;3.55;;
68315;SDS011;55508;54.368;18.406;2023-12-22T08:55:52;8.80;;;3.35;;
68315;SDS011;55508;54.368;18.406;2023-12-22T08:58:19;3.97;;;2.17;;
68315;SDS011;55508;54.368;18.406;2023-12-22T09:00:46;7.25;;;2.72;;
68315;SDS011;55508;54.368;18.406;2023-12-22T09:03:13;5.90;;;2.42;;
68315;SDS011;55508;54.368;18.406;2023-12-22T09:05:40;2.33;;;1.45;;
68315;SDS011;55508;54.368;18.406;2023-12-22T09:08:07;6.97;;;2.33;;
68315;SDS011;55508;54.368;18.406;2023-12-22T09:10:34;1.92;;;0.70;;
68315;SDS011;55508;54.368;18.406;2023-12-22T09:13:02;2.28;;;1.48;;
68315;SDS011;55508;54.368;18.406;2023-12-22T09:15:29;5.30;;;3.00;;
68315;SDS011;55508;54.368;18.406;2023-12-22T09:17:56;1.42;;;1.17;;
68315;SDS011;55508;54.368;18.406;2023-12-22T09:20:23;1.45;;;1.02;;
68315;SDS011;55508;54.368;18.406;2023-12-22T09:22:51;1.35;;;1.20;;
68315;SDS011;55508;54.368;18.406;2023-12-22T09:25:18;2.63;;;1.75;;
68315;SDS011;55508;54.368;18.406;2023-12-22T09:27:45;2.65;;;1.60;;
68315;SDS011;55508;54.368;18.406;2023-12-22T09:30:13;1.48;;;1.30;;
68315;SDS011;55508;54.368;18.406;2023-12-22T09:32:40;1.85;;;1.50;;
68315;SDS011;55508;54.368;18.406;2023-12-22T09:35:07;1.98;;;1.80;;
68315;SDS011;55508;54.368;18.406;2023-12-22T09:37:36;1.88;;;1.45;;
68315;SDS011;55508;54.368;18.406;2023-12-22T09:40:04;2.33;;;1.25;;
68315;SDS011;55508;54.368;18.406;2023-12-22T09:42:33;1.48;;;1.23;;
68315;SDS011;55508;54.368;18.406;2023-12-22T09:45:01;2.03;;;1.63;;
68315;SDS011;55508;54.368;18.406;2023-12-22T09:47:29;2.28;;;1.52;;
68315;SDS011;55508;54.368;18.406;2023-12-22T09:49:57;4.25;;;1.80;;
68315;SDS011;55508;54.368;18.406;2023-12-22T09:52:25;1.90;;;1.20;;
68315;SDS011;55508;54.368;18.406;2023-12-22T09:54:53;1.75;;;1.30;;
68315;SDS011;55508;54.368;18.406;2023-12-22T09:57:21;2.70;;;1.40;;
68315;SDS011;55508;54.368;18.406;2023-12-22T09:59:54;2.28;;;1.80;;
68315;SDS011;55508;54.368;18.406;2023-12-22T10:02:23;5.20;;;4.50;;
68315;SDS011;55508;54.368;18.406;2023-12-22T10:04:56;7.65;;;6.95;;
68315;SDS011;55508;54.368;18.406;2023-12-22T10:07:23;3.20;;;2.90;;
68315;SDS011;55508;54.368;18.406;2023-12-22T10:09:50;3.05;;;1.92;;
68315;SDS011;55508;54.368;18.406;2023-12-22T10:12:17;1.10;;;1.05;;
68315;SDS011;55508;54.368;18.406;2023-12-22T10:14:46;1.60;;;1.48;;
68315;SDS011;55508;54.368;18.406;2023-12-22T10:17:14;2.47;;;1.55;;
68315;SDS011;55508;54.368;18.406;2023-12-22T10:19:42;1.20;;;0.90;;
68315;SDS011;55508;54.368;18.406;2023-12-22T10:22:09;1.80;;;1.33;;
68315;SDS011;55508;54.368;18.406;2023-12-22T10:24:42;0.98;;;0.75;;
68315;SDS011;55508;54.368;18.406;2023-12-22T10:27:14;1.65;;;1.05;;
68315;SDS011;55508;54.368;18.406;2023-12-22T10:29:41;2.72;;;1.27;;
68315;SDS011;55508;54.368;18.406;2023-12-22T10:32:08;8.65;;;5.20;;
68315;SDS011;55508;54.368;18.406;2023-12-22T10:34:36;9.20;;;5.05;;
68315;SDS011;55508;54.368;18.406;2023-12-22T10:37:03;6.65;;;4.10;;
68315;SDS011;55508;54.368;18.406;2023-12-22T10:39:31;3.00;;;2.58;;
68315;SDS011;55508;54.368;18.406;2023-12-22T10:41:59;4.75;;;3.05;;
68315;SDS011;55508;54.368;18.406;2023-12-22T10:44:27;3.40;;;2.88;;
68315;SDS011;55508;54.368;18.406;2023-12-22T10:46:58;0.85;;;0.80;;
68315;SDS011;55508;54.368;18.406;2023-12-22T10:49:25;1.90;;;1.70;;
68315;SDS011;55508;54.368;18.406;2023-12-22T10:51:52;2.90;;;1.77;;
68315;SDS011;55508;54.368;18.406;2023-12-22T10:54:19;2.80;;;2.53;;
68315;SDS011;55508;54.368;18.406;2023-12-22T10:56:46;8.25;;;5.63;;
68315;SDS011;55508;54.368;18.406;2023-12-22T10:59:16;2.72;;;1.65;;
68315;SDS011;55508;54.368;18.406;2023-12-22T11:01:45;5.85;;;3.58;;
68315;SDS011;55508;54.368;18.406;2023-12-22T11:04:18;3.67;;;2.55;;
68315;SDS011;55508;54.368;18.406;2023-12-22T11:06:47;4.22;;;3.17;;
68315;SDS011;55508;54.368;18.406;2023-12-22T11:09:16;6.90;;;3.40;;
68315;SDS011;55508;54.368;18.406;2023-12-22T11:11:43;4.75;;;3.42;;
68315;SDS011;55508;54.368;18.406;2023-12-22T11:14:11;3.65;;;2.83;;
68315;SDS011;55508;54.368;18.406;2023-12-22T11:16:39;1.92;;;1.55;;
68315;SDS011;55508;54.368;18.406;2023-12-22T11:19:14;5.90;;;4.03;;
68315;SDS011;55508;54.368;18.406;2023-12-22T11:21:42;6.28;;;3.67;;
68315;SDS011;55508;54.368;18.406;2023-12-22T11:24:10;3.38;;;2.00;;
68315;SDS011;55508;54.368;18.406;2023-12-22T11:26:41;3.35;;;1.77;;
68315;SDS011;55508;54.368;18.406;2023-12-22T11:29:09;2.55;;;2.30;;
68315;SDS011;55508;54.368;18.406;2023-12-22T11:31:37;4.72;;;2.90;;
68315;SDS011;55508;54.368;18.406;2023-12-22T11:34:07;1.80;;;1.70;;
68315;SDS011;55508;54.368;18.406;2023-12-22T11:36:41;2.10;;;1.63;;
68315;SDS011;55508;54.368;18.406;2023-12-22T11:39:10;1.98;;;1.80;;
68315;SDS011;55508;54.368;18.406;2023-12-22T11:41:37;1.02;;;0.93;;
68315;SDS011;55508;54.368;18.406;2023-12-22T11:44:04;1.70;;;1.38;;
68315;SDS011;55508;54.368;18.406;2023-12-22T11:46:32;3.78;;;1.70;;
68315;SDS011;55508;54.368;18.406;2023-12-22T11:49:00;1.98;;;1.45;;
68315;SDS011;55508;54.368;18.406;2023-12-22T11:51:32;1.27;;;1.17;;
68315;SDS011;55508;54.368;18.406;2023-12-22T11:54:03;1.80;;;1.50;;
68315;SDS011;55508;54.368;18.406;2023-12-22T11:56:30;2.33;;;1.95;;
68315;SDS011;55508;54.368;18.406;2023-12-22T11:58:58;1.52;;;1.42;;
68315;SDS011;55508;54.368;18.406;2023-12-22T12:01:26;2.58;;;1.92;;
68315;SDS011;55508;54.368;18.406;2023-12-22T12:04:01;2.88;;;1.75;;
68315;SDS011;55508;54.368;18.406;2023-12-22T12:06:31;3.92;;;1.45;;
68315;SDS011;55508;54.368;18.406;2023-12-22T12:09:03;2.75;;;1.35;;
68315;SDS011;55508;54.368;18.406;2023-12-22T12:14:37;3.40;;;2.20;;
68315;SDS011;55508;54.368;18.406;2023-12-22T12:17:08;1.80;;;1.38;;
68315;SDS011;55508;54.368;18.406;2023-12-22T12:19:39;1.17;;;1.08;;
68315;SDS011;55508;54.368;18.406;2023-12-22T12:22:11;2.95;;;2.15;;
68315;SDS011;55508;54.368;18.406;2023-12-22T12:24:39;5.28;;;2.65;;
68315;SDS011;55508;54.368;18.406;2023-12-22T12:27:07;2.55;;;1.55;;
68315;SDS011;55508;54.368;18.406;2023-12-22T12:29:35;1.20;;;1.10;;
68315;SDS011;55508;54.368;18.406;2023-12-22T12:32:05;5.97;;;1.75;;
68315;SDS011;55508;54.368;18.406;2023-12-22T12:34:33;2.13;;;0.63;;
68315;SDS011;55508;54.368;18.406;2023-12-22T12:37:00;1.30;;;1.20;;
68315;SDS011;55508;54.368;18.406;2023-12-22T12:39:29;2.55;;;2.03;;
68315;SDS011;55508;54.368;18.406;2023-12-22T12:41:59;2.42;;;1.30;;
68315;SDS011;55508;54.368;18.406;2023-12-22T12:44:28;2.60;;;1.90;;
68315;SDS011;55508;54.368;18.406;2023-12-22T12:46:57;3.80;;;2.47;;
68315;SDS011;55508;54.368;18.406;2023-12-22T12:49:24;4.35;;;1.92;;
68315;SDS011;55508;54.368;18.406;2023-12-22T12:51:54;6.07;;;3.08;;
68315;SDS011;55508;54.368;18.406;2023-12-22T12:54:23;5.68;;;3.75;;
68315;SDS011;55508;54.368;18.406;2023-12-22T12:56:50;5.22;;;3.92;;
68315;SDS011;55508;54.368;18.406;2023-12-22T12:59:17;2.92;;;1.80;;
68315;SDS011;55508;54.368;18.406;2023-12-22T13:01:45;5.30;;;2.90;;
68315;SDS011;55508;54.368;18.406;2023-12-22T13:04:14;4.05;;;2.85;;
68315;SDS011;55508;54.368;18.406;2023-12-22T13:06:45;7.90;;;3.28;;
68315;SDS011;55508;54.368;18.406;2023-12-22T13:09:17;4.00;;;2.42;;
68315;SDS011;55508;54.368;18.406;2023-12-22T13:11:45;10.50;;;2.70;;
68315;SDS011;55508;54.368;18.406;2023-12-22T13:14:22;13.50;;;2.53;;
68315;SDS011;55508;54.368;18.406;2023-12-22T13:16:52;7.15;;;3.90;;
68315;SDS011;55508;54.368;18.406;2023-12-22T13:19:22;3.65;;;2.47;;
68315;SDS011;55508;54.368;18.406;2023-12-22T13:21:54;3.30;;;2.17;;
68315;SDS011;55508;54.368;18.406;2023-12-22T13:24:21;3.20;;;2.90;;
68315;SDS011;55508;54.368;18.406;2023-12-22T13:26:58;4.25;;;2.67;;
68315;SDS011;55508;54.368;18.406;2023-12-22T13:29:27;4.68;;;3.08;;
68315;SDS011;55508;54.368;18.406;2023-12-22T13:31:55;4.38;;;3.50;;
68315;SDS011;55508;54.368;18.406;2023-12-22T13:34:22;1.58;;;1.40;;
68315;SDS011;55508;54.368;18.406;2023-12-22T13:36:49;3.17;;;2.17;;
68315;SDS011;55508;54.368;18.406;2023-12-22T13:39:16;1.50;;;1.40;;
68315;SDS011;55508;54.368;18.406;2023-12-22T13:41:44;4.07;;;1.83;;
68315;SDS011;55508;54.368;18.406;2023-12-22T13:44:15;4.25;;;3.13;;
68315;SDS011;55508;54.368;18.406;2023-12-22T13:46:42;1.75;;;1.48;;
68315;SDS011;55508;54.368;18.406;2023-12-22T13:49:09;3.88;;;3.50;;
68315;SDS011;55508;54.368;18.406;2023-12-22T13:51:44;4.53;;;3.78;;
68315;SDS011;55508;54.368;18.406;2023-12-22T13:54:11;4.85;;;2.83;;
68315;SDS011;55508;54.368;18.406;2023-12-22T13:56:39;18.52;;;6.18;;
68315;SDS011;55508;54.368;18.406;2023-12-22T13:59:11;7.57;;;3.30;;
68315;SDS011;55508;54.368;18.406;2023-12-22T14:01:38;3.85;;;2.65;;
68315;SDS011;55508;54.368;18.406;2023-12-22T14:04:07;8.60;;;6.38;;
68315;SDS011;55508;54.368;18.406;2023-12-22T14:06:37;3.75;;;3.17;;
68315;SDS011;55508;54.368;18.406;2023-12-22T14:09:04;4.70;;;2.90;;
68315;SDS011;55508;54.368;18.406;2023-12-22T14:11:31;3.03;;;1.73;;
68315;SDS011;55508;54.368;18.406;2023-12-22T14:13:59;4.68;;;2.30;;
68315;SDS011;55508;54.368;18.406;2023-12-22T14:16:26;4.00;;;2.95;;
68315;SDS011;55508;54.368;18.406;2023-12-22T14:18:53;4.32;;;2.90;;
68315;SDS011;55508;54.368;18.406;2023-12-22T14:21:21;6.85;;;4.30;;
68315;SDS011;55508;54.368;18.406;2023-12-22T14:23:48;2.00;;;1.75;;
68315;SDS011;55508;54.368;18.406;2023-12-22T14:26:15;2.92;;;2.10;;
68315;SDS011;55508;54.368;18.406;2023-12-22T14:28:43;3.50;;;3.08;;
68315;SDS011;55508;54.368;18.406;2023-12-22T14:31:14;1.95;;;1.83;;
68315;SDS011;55508;54.368;18.406;2023-12-22T14:33:41;4.07;;;3.60;;
68315;SDS011;55508;54.368;18.406;2023-12-22T14:36:08;4.43;;;2.53;;
68315;SDS011;55508;54.368;18.406;2023-12-22T14:38:35;2.70;;;1.92;;
68315;SDS011;55508;54.368;18.406;2023-12-22T14:41:02;3.63;;;2.58;;
68315;SDS011;55508;54.368;18.406;2023-12-22T14:43:29;3.65;;;2.90;;
68315;SDS011;55508;54.368;18.406;2023-12-22T14:45:56;1.75;;;1.45;;
68315;SDS011;55508;54.368;18.406;2023-12-22T14:48:23;3.15;;;2.40;;